CST,Max TemperatureF,Mean TemperatureF,Min TemperatureF,Max Dew PointF,MeanDew PointF,Min DewpointF,Max Humidity, Mean Humidity, Min Humidity, Max Sea Level PressureIn, Mean Sea Level PressureIn, Min Sea Level PressureIn, Max VisibilityMiles, Mean VisibilityMiles, Min VisibilityMiles, Max Wind SpeedMPH, Mean Wind SpeedMPH, Max Gust SpeedMPH,PrecipitationIn, CloudCover, Events, WindDirDegrees
2012-12-1,53,43,33,54,44,34,100,98,87,30.11,29.94,29.83,7,4,0,15,9,18,0.00,8,Fog-Snow,150
2012-12-2,59,50,42,54,47,43,100,86,55,30.04,29.95,29.83,10,6,0,13,7,,0.00,4,Fog,254
2012-12-3,64,54,44,63,53,39,100,93,67,29.99,29.83,29.71,10,6,0,24,12,33,0.02,7,Fog-Rain,189
2012-12-4,53,42,30,39,30,19,100,62,41,30.31,30.10,29.93,10,10,10,22,11,31,0.00,0,,286
2012-12-5,35,28,21,30,20,14,93,66,48,30.42,30.31,30.15,10,10,10,13,8,17,0.00,0,,88
2012-12-6,44,38,32,37,33,30,100,81,66,30.15,29.96,29.86,10,10,10,20,11,24,0.00,5,,194
2012-12-7,39,36,33,36,30,27,93,77,61,29.95,29.92,29.89,10,10,5,14,7,,0.00,6,Snow,15
2012-12-8,37,34,32,32,31,27,100,91,65,30.07,29.99,29.91,10,10,5,13,8,,0.00,6,Snow,36
2012-12-9,33,32,32,34,33,32,100,100,93,30.05,29.84,29.69,10,2,0,21,9,25,0.11,8,Fog-Snow,50
2012-12-10,32,29,26,32,29,23,100,95,69,29.92,29.80,29.70,10,8,2,24,13,28,0.00,8,Snow,296
2012-12-11,32,26,19,25,21,18,100,80,60,30.07,29.94,29.90,10,10,5,20,12,24,0.00,5,Snow,214
2012-12-12,42,34,26,27,25,21,93,71,53,30.18,30.13,30.07,10,10,10,23,13,30,0.00,1,,192
2012-12-13,44,38,32,27,25,23,80,65,43,30.16,30.10,30.03,10,10,10,25,17,31,0.00,0,,202
2012-12-14,46,38,30,34,30,25,93,73,53,30.15,30.07,29.93,10,10,10,13,7,17,0.00,1,,152
2012-12-15,44,40,37,45,41,32,100,96,70,29.93,29.65,29.51,10,5,0,20,12,28,0.24,8,Fog-Rain,162
2012-12-16,44,38,33,45,38,34,100,98,93,29.71,29.62,29.51,10,8,0,22,12,29,0.00,8,Fog-Rain,264
2012-12-17,33,30,28,34,30,28,100,96,87,29.72,29.70,29.66,10,9,2,12,6,,0.00,8,,323
2012-12-18,32,31,30,32,31,28,100,99,93,29.84,29.67,29.56,10,4,0,14,6,20,0.00,8,Snow,85
2012-12-19,33,32,30,32,32,30,100,99,93,30.01,29.94,29.78,7,4,0,17,6,21,0.02,8,Snow,21
2012-12-20,33,30,28,34,32,27,100,99,86,29.75,29.41,29.16,10,2,0,32,22,48,0.26,8,Rain-Snow,357
2012-12-21,28,22,14,27,14,9,93,76,63,30.17,29.98,29.63,10,10,10,26,18,38,0.00,1,,305
2012-12-22,26,17,8,23,14,7,100,85,63,30.17,30.06,29.91,10,10,5,14,8,,0.00,0,,203
2012-12-23,23,18,14,23,20,12,100,97,86,30.02,29.97,29.90,10,10,5,18,9,26,0.00,5,,15
2012-12-24,28,24,17,27,22,16,100,92,80,30.11,29.96,29.88,10,10,7,12,7,,0.00,7,,8
2012-12-25,21,16,12,16,11,9,100,81,68,30.32,30.25,30.12,10,10,10,15,9,17,0.00,2,,351
2012-12-26,28,24,19,23,20,14,100,85,74,30.23,30.13,30.06,10,10,10,20,11,28,0.00,8,,359
2012-12-27,28,24,19,23,20,18,93,85,69,30.17,30.13,30.07,10,10,10,13,7,,0.00,8,,16
2012-12-28,30,27,24,28,27,23,100,98,93,30.07,29.97,29.87,10,6,2,9,4,,0.00,8,Snow,46
2012-12-29,26,19,12,27,20,10,100,92,74,30.16,30.00,29.86,10,9,2,18,10,23,0.00,7,Snow,291
2012-12-30,32,19,6,27,15,7,100,88,68,30.25,30.15,29.95,10,8,5,24,11,29,0.00,0,Snow,208
2012-12-31,32,23,12,25,17,5,93,77,67,30.13,30.02,29.93,10,10,10,20,13,28,0.00,2,,286